Time;durP1;ratioP1;P1;durP2;ratioP2;P2;SDS_P1;SDS_P2;PMS_P1;PMS_P2;Temp;Humidity;BMP_temperature;BMP_pressure;BME280_temperature;BME280_humidity;BME280_pressure;Samples;Min_cycle;Max_cycle;Signal;HPM_P1;HPM_P2
2024/01/18 00:00:08;;;;;;;;;19.25;18.00;;;;;2.56;100.00;98967.59;5065205;27;45227;-72
2024/01/18 00:02:33;;;;;;;;;20.50;19.75;;;;;2.57;100.00;98976.25;5052876;28;45410;-72
2024/01/18 00:04:59;;;;;;;;;19.25;17.25;;;;;2.56;100.00;98985.00;5062353;28;45415;-72
2024/01/18 00:07:24;;;;;;;;;21.25;15.00;;;;;2.52;100.00;98967.81;5072427;27;45393;-72
2024/01/18 00:09:49;;;;;;;;;21.75;15.00;;;;;2.55;100.00;98991.97;5061397;27;45244;-72
2024/01/18 00:12:15;;;;;;;;;18.25;14.50;;;;;2.26;100.00;98942.81;5073371;28;45468;-72
2024/01/18 00:14:40;;;;;;;;;17.25;14.25;;;;;2.22;100.00;98938.69;5072317;27;45397;-72
2024/01/18 00:17:05;;;;;;;;;21.75;17.25;;;;;2.40;100.00;98983.97;5074914;27;45509;-72
2024/01/18 00:19:31;;;;;;;;;18.00;17.75;;;;;2.43;100.00;98996.88;5047201;28;48027;-72
2024/01/18 00:21:56;;;;;;;;;15.00;13.00;;;;;2.39;100.00;99000.56;5070836;27;45415;-72
2024/01/18 00:24:21;;;;;;;;;14.00;10.50;;;;;2.40;100.00;99017.88;5066760;28;45390;-72
2024/01/18 00:26:47;;;;;;;;;19.50;15.75;;;;;2.41;100.00;99017.84;5061880;28;45456;-72
2024/01/18 00:29:12;;;;;;;;;19.00;16.00;;;;;2.43;100.00;99013.38;5054748;28;48043;-72
2024/01/18 00:31:37;;;;;;;;;20.50;16.00;;;;;2.39;100.00;99001.38;5077912;27;45325;-72
2024/01/18 00:34:03;;;;;;;;;18.00;15.50;;;;;2.47;100.00;99011.50;5074738;27;45301;-72
2024/01/18 00:36:28;;;;;;;;;20.00;15.50;;;;;2.45;100.00;98990.72;5078416;27;45349;-72
2024/01/18 00:38:53;;;;;;;;;14.75;11.25;;;;;2.48;100.00;99002.75;5064429;28;45351;-72
2024/01/18 00:41:20;;;;;;;;;14.50;12.50;;;;;1.99;100.00;98938.81;5067417;27;45344;-72
2024/01/18 00:43:47;;;;;;;;;15.75;11.25;;;;;2.34;100.00;98990.31;5059150;28;45499;-72
2024/01/18 00:46:12;;;;;;;;;18.00;14.00;;;;;2.18;100.00;98973.63;5067526;27;45189;-72
2024/01/18 00:48:37;;;;;;;;;14.25;10.50;;;;;2.27;100.00;98991.47;5068956;27;45215;-72
2024/01/18 00:51:03;;;;;;;;;17.25;11.75;;;;;2.25;100.00;98995.06;5073796;27;45849;-72
2024/01/18 00:53:29;;;;;;;;;18.75;13.75;;;;;2.24;100.00;99004.66;5073914;27;45299;-72
2024/01/18 00:55:55;;;;;;;;;14.00;11.75;;;;;2.25;100.00;99001.13;5073060;27;45441;-71
2024/01/18 00:58:20;;;;;;;;;14.00;13.00;;;;;2.28;100.00;99016.66;5069702;27;46348;-72
2024/01/18 01:00:45;;;;;;;;;17.50;15.50;;;;;2.19;100.00;99003.16;5070138;28;45379;-72
2024/01/18 01:03:11;;;;;;;;;19.75;14.00;;;;;1.97;100.00;98962.31;5048705;27;45451;-72
2024/01/18 01:05:36;;;;;;;;;13.00;13.00;;;;;2.15;100.00;99005.03;5071377;28;45407;-72
2024/01/18 01:08:01;;;;;;;;;19.00;14.25;;;;;1.94;100.00;98969.44;5061426;27;47047;-72
2024/01/18 01:10:27;;;;;;;;;17.50;14.25;;;;;2.17;100.00;99008.41;5073879;27;45470;-72
2024/01/18 01:12:52;;;;;;;;;14.00;14.00;;;;;2.11;100.00;98995.66;5069195;28;45315;-71
2024/01/18 01:15:18;;;;;;;;;16.00;15.50;;;;;1.89;100.00;98960.97;5060720;28;45664;-71
2024/01/18 01:17:43;;;;;;;;;16.50;12.00;;;;;1.99;100.00;98983.97;5073001;28;45910;-71
2024/01/18 01:20:09;;;;;;;;;21.00;17.50;;;;;2.07;100.00;98991.47;5071954;28;45547;-72
2024/01/18 01:22:35;;;;;;;;;19.00;15.75;;;;;2.07;100.00;98999.28;5069716;28;45345;-71
2024/01/18 01:25:00;;;;;;;;;21.25;16.25;;;;;2.02;100.00;98990.81;5068749;27;45447;-71
2024/01/18 01:27:26;;;;;;;;;19.75;14.75;;;;;2.02;100.00;98990.81;5072614;27;45512;-71
2024/01/18 01:29:51;;;;;;;;;18.50;15.25;;;;;1.96;100.00;98994.50;5065234;28;45433;-71
2024/01/18 01:32:16;;;;;;;;;21.25;18.75;;;;;1.99;100.00;99007.44;5063803;27;45400;-71
2024/01/18 01:34:42;;;;;;;;;23.50;18.75;;;;;1.97;100.00;99001.44;5074779;27;45222;-71
2024/01/18 01:37:07;;;;;;;;;25.00;18.25;;;;;1.91;100.00;98995.63;5073131;27;45247;-71
2024/01/18 01:39:32;;;;;;;;;22.50;18.00;;;;;1.93;100.00;99006.84;5070882;27;45313;-71
2024/01/18 01:41:58;;;;;;;;;15.50;14.50;;;;;1.53;100.00;98953.75;5064431;28;45215;-71
2024/01/18 01:44:23;;;;;;;;;25.25;19.50;;;;;1.89;100.00;99006.13;5061444;28;45244;-71
2024/01/18 01:46:48;;;;;;;;;22.75;19.25;;;;;1.66;100.00;98979.28;5076425;27;45425;-72
2024/01/18 01:49:14;;;;;;;;;20.75;18.25;;;;;1.81;100.00;99018.59;5074441;28;45272;-71
2024/01/18 01:51:48;;;;;;;;;23.75;18.50;;;;;1.87;100.00;99017.50;5073879;27;45477;-71
2024/01/18 01:54:15;;;;;;;;;27.00;20.25;;;;;1.89;100.00;99026.97;5065680;27;45254;-69
2024/01/18 01:56:42;;;;;;;;;19.25;18.25;;;;;1.76;100.00;99012.75;5065670;27;46544;-69
2024/01/18 01:59:10;;;;;;;;;32.00;20.00;;;;;1.83;100.00;99026.38;5067827;28;45393;-69
2024/01/18 02:01:37;;;;;;;;;23.25;18.50;;;;;1.67;100.00;99007.06;5067880;28;45305;-69
2024/01/18 02:04:03;;;;;;;;;25.25;19.50;;;;;1.89;100.00;99037.41;5073631;27;45429;-69
2024/01/18 02:06:30;;;;;;;;;29.50;24.50;;;;;1.89;100.00;99034.78;5068425;28;45194;-69
2024/01/18 02:08:56;;;;;;;;;23.75;21.25;;;;;1.89;100.00;99037.41;5079904;27;45393;-69
2024/01/18 02:11:22;;;;;;;;;29.25;21.00;;;;;1.91;100.00;99047.75;5068283;28;45402;-69
2024/01/18 02:13:48;;;;;;;;;22.75;21.75;;;;;1.88;100.00;99037.44;5069749;27;45541;-69
2024/01/18 02:16:14;;;;;;;;;23.75;23.75;;;;;1.90;100.00;99044.28;5064830;27;45343;-69
2024/01/18 02:18:39;;;;;;;;;21.50;18.25;;;;;1.66;100.00;99002.75;5074470;28;45394;-69
2024/01/18 02:21:07;;;;;;;;;26.25;23.25;;;;;1.84;100.00;99044.53;5077508;27;45495;-69
2024/01/18 02:23:34;;;;;;;;;24.00;22.00;;;;;1.80;100.00;99040.34;5075196;27;45254;-69
2024/01/18 02:26:00;;;;;;;;;21.25;19.25;;;;;1.78;100.00;99039.56;5065932;28;45485;-69
2024/01/18 02:28:25;;;;;;;;;21.25;18.25;;;;;1.75;100.00;99037.09;5072694;27;45596;-69
2024/01/18 02:30:50;;;;;;;;;17.25;17.25;;;;;1.57;100.00;99007.41;5067487;27;45502;-69
2024/01/18 02:33:16;;;;;;;;;22.50;22.50;;;;;1.70;100.00;99033.84;5072322;28;45254;-69
2024/01/18 02:35:41;;;;;;;;;22.00;19.75;;;;;1.72;100.00;99052.84;5067875;28;45457;-69
2024/01/18 02:38:07;;;;;;;;;24.50;19.00;;;;;1.72;100.00;99054.59;5064037;28;45419;-69
2024/01/18 02:40:32;;;;;;;;;19.00;17.25;;;;;1.69;100.00;99046.91;5072894;28;45488;-69
2024/01/18 02:42:57;;;;;;;;;17.75;16.75;;;;;1.73;100.00;99064.97;5072532;27;45492;-69
2024/01/18 02:45:24;;;;;;;;;23.25;16.00;;;;;1.66;100.00;99057.47;5076730;27;45928;-69
2024/01/18 02:47:49;;;;;;;;;23.75;19.00;;;;;1.71;100.00;99076.34;5053284;28;45450;-69
2024/01/18 02:50:15;;;;;;;;;16.25;15.25;;;;;1.64;100.00;99056.69;5074431;27;45715;-69
2024/01/18 02:52:40;;;;;;;;;16.00;16.00;;;;;1.63;100.00;99058.44;5077619;27;45307;-69
2024/01/18 02:55:07;;;;;;;;;20.75;16.00;;;;;1.70;100.00;99080.75;5069491;28;47000;-69
2024/01/18 02:57:32;;;;;;;;;19.00;15.00;;;;;1.38;100.00;99032.47;5070896;27;45248;-69
2024/01/18 02:59:58;;;;;;;;;16.75;15.75;;;;;1.64;100.00;99074.91;5071102;27;45262;-69
2024/01/18 03:02:23;;;;;;;;;15.50;14.00;;;;;1.56;100.00;99073.44;5071094;27;45511;-69
2024/01/18 03:04:49;;;;;;;;;17.25;17.25;;;;;1.59;100.00;99064.66;5078669;27;45218;-69
2024/01/18 03:07:14;;;;;;;;;19.25;13.75;;;;;1.62;100.00;99071.50;5072797;27;45577;-69
2024/01/18 03:09:39;;;;;;;;;19.00;12.00;;;;;1.53;100.00;99055.34;5072834;27;45367;-70
2024/01/18 03:12:05;;;;;;;;;15.50;14.50;;;;;1.58;100.00;99069.03;5074373;28;45441;-69
2024/01/18 03:14:31;;;;;;;;;15.50;14.50;;;;;1.58;100.00;99084.66;5076877;28;46120;-69
2024/01/18 03:16:56;;;;;;;;;14.00;14.00;;;;;1.50;100.00;99081.50;5071760;27;45432;-69
2024/01/18 03:19:22;;;;;;;;;16.00;11.75;;;;;1.53;100.00;99102.22;5060360;28;45536;-69
2024/01/18 03:21:47;;;;;;;;;15.75;13.25;;;;;1.57;100.00;99106.38;5069538;27;45479;-69
2024/01/18 03:24:12;;;;;;;;;14.75;12.75;;;;;1.58;100.00;99118.50;5076789;28;45382;-69
2024/01/18 03:26:38;;;;;;;;;16.00;11.00;;;;;1.54;100.00;99097.84;5057528;28;45340;-69
2024/01/18 03:29:03;;;;;;;;;11.00;10.00;;;;;1.52;100.00;99097.91;5075539;28;45432;-69
2024/01/18 03:31:28;;;;;;;;;12.25;10.25;;;;;1.36;100.00;99075.09;5072090;28;45388;-69
2024/01/18 03:33:54;;;;;;;;;13.75;11.00;;;;;1.60;100.00;99115.00;5063584;27;46253;-69
2024/01/18 03:36:20;;;;;;;;;17.50;13.75;;;;;1.55;100.00;99113.44;5067430;27;45333;-69
2024/01/18 03:38:45;;;;;;;;;17.50;13.25;;;;;1.61;100.00;99121.91;5065595;27;45264;-69
2024/01/18 03:41:10;;;;;;;;;18.50;12.50;;;;;1.61;100.00;99127.13;5074453;27;45379;-69
2024/01/18 03:43:36;;;;;;;;;17.75;13.00;;;;;1.57;100.00;99121.19;5052201;27;46510;-69
2024/01/18 03:46:01;;;;;;;;;14.25;11.25;;;;;1.58;100.00;99130.69;5076997;28;45572;-70
2024/01/18 03:48:27;;;;;;;;;15.25;13.75;;;;;1.62;100.00;99142.69;5070705;27;46074;-69
2024/01/18 03:50:52;;;;;;;;;14.00;10.75;;;;;1.61;100.00;99151.41;5078666;27;45421;-69
2024/01/18 03:53:18;;;;;;;;;12.25;10.50;;;;;1.61;100.00;99151.41;5070747;28;45549;-69
2024/01/18 03:55:43;;;;;;;;;11.75;10.25;;;;;1.52;100.00;99155.22;5079242;27;45485;-69
2024/01/18 03:58:09;;;;;;;;;9.25;9.25;;;;;1.53;100.00;99154.31;5072594;27;45376;-69
2024/01/18 04:00:34;;;;;;;;;11.00;11.00;;;;;1.44;100.00;99141.63;5075434;27;45538;-69
2024/01/18 04:02:59;;;;;;;;;11.00;9.25;;;;;1.52;100.00;99165.66;5066193;27;45392;-69
2024/01/18 04:05:25;;;;;;;;;13.25;10.50;;;;;1.50;100.00;99162.25;5066712;27;45467;-69
2024/01/18 04:07:50;;;;;;;;;8.50;8.50;;;;;1.60;100.00;99187.97;5071679;28;45380;-69
2024/01/18 04:10:16;;;;;;;;;17.50;14.75;;;;;1.54;100.00;99178.59;5068141;28;45417;-69
2024/01/18 04:12:42;;;;;;;;;14.75;14.75;;;;;1.50;100.00;99177.88;5070289;28;46481;-70
2024/01/18 04:15:08;;;;;;;;;18.00;14.00;;;;;1.53;100.00;99190.78;5071907;27;45325;-69
2024/01/18 04:17:34;;;;;;;;;18.25;16.75;;;;;1.46;100.00;99188.47;5057117;28;45319;-69
2024/01/18 04:20:00;;;;;;;;;16.75;14.00;;;;;1.49;100.00;99199.63;5074490;27;45358;-69
2024/01/18 04:22:25;;;;;;;;;15.75;14.50;;;;;1.44;100.00;99209.34;5078552;27;45416;-69
2024/01/18 04:24:51;;;;;;;;;15.00;15.00;;;;;1.41;100.00;99213.81;5076630;28;45401;-69
2024/01/18 04:27:17;;;;;;;;;19.50;11.75;;;;;1.39;100.00;99220.84;5074898;27;45485;-69
2024/01/18 04:29:42;;;;;;;;;15.25;13.25;;;;;1.37;100.00;99218.31;5071520;27;45319;-69
2024/01/18 04:32:07;;;;;;;;;14.50;13.00;;;;;1.31;100.00;99215.88;5065064;27;45355;-69
2024/01/18 04:34:33;;;;;;;;;23.50;17.25;;;;;1.35;100.00;99242.69;5073833;28;45530;-69
2024/01/18 04:36:59;;;;;;;;;12.75;9.75;;;;;1.33;100.00;99237.53;5070898;28;45459;-69
2024/01/18 04:39:24;;;;;;;;;14.50;14.50;;;;;1.33;100.00;99237.53;5069500;28;45271;-69
2024/01/18 04:41:50;;;;;;;;;19.50;14.75;;;;;1.36;100.00;99254.81;5059881;28;48199;-69
2024/01/18 04:44:15;;;;;;;;;18.75;16.00;;;;;1.37;100.00;99270.38;5067931;27;45177;-69
2024/01/18 04:46:41;;;;;;;;;19.50;16.00;;;;;1.31;100.00;99260.16;5072668;27;45379;-69
2024/01/18 04:49:07;;;;;;;;;19.25;15.00;;;;;1.33;100.00;99287.00;5075942;27;45221;-69
2024/01/18 04:51:32;;;;;;;;;20.00;17.50;;;;;1.15;100.00;99264.19;5079465;28;46376;-69
2024/01/18 04:53:57;;;;;;;;;17.00;17.00;;;;;1.28;100.00;99296.72;5078775;28;45549;-69
2024/01/18 04:56:23;;;;;;;;;26.00;16.75;;;;;1.26;100.00;99308.09;5072428;27;45382;-69
2024/01/18 04:58:48;;;;;;;;;18.25;17.75;;;;;1.30;100.00;99310.56;5055353;28;45331;-69
2024/01/18 05:01:14;;;;;;;;;19.25;16.50;;;;;0.99;100.00;99276.00;5067184;27;46080;-69
2024/01/18 05:03:39;;;;;;;;;19.75;17.25;;;;;1.30;100.00;99323.56;5060281;28;45762;-69
2024/01/18 05:06:05;;;;;;;;;23.25;16.75;;;;;1.31;100.00;99332.25;5073744;27;45369;-69
2024/01/18 05:08:31;;;;;;;;;31.00;22.75;;;;;1.22;100.00;99315.16;5069555;28;45433;-69
2024/01/18 05:10:56;;;;;;;;;25.50;19.00;;;;;1.28;100.00;99338.38;5071841;28;45394;-69
2024/01/18 05:13:22;;;;;;;;;25.75;21.50;;;;;1.33;100.00;99352.13;5069920;27;45287;-69
2024/01/18 05:15:48;;;;;;;;;24.00;21.50;;;;;1.12;100.00;99328.53;5079035;27;45254;-69
2024/01/18 05:18:14;;;;;;;;;29.75;25.00;;;;;1.31;100.00;99364.31;5074544;27;45426;-69
2024/01/18 05:20:39;;;;;;;;;24.25;22.50;;;;;1.27;100.00;99360.13;5067289;28;45208;-69
2024/01/18 05:23:06;;;;;;;;;24.25;22.75;;;;;1.37;100.00;99368.50;5078307;28;45486;-69
2024/01/18 05:25:32;;;;;;;;;32.00;25.50;;;;;1.31;100.00;99368.72;5078859;27;45296;-69
2024/01/18 05:27:58;;;;;;;;;37.00;28.00;;;;;1.28;100.00;99369.63;5069072;27;45550;-69
2024/01/18 05:30:23;;;;;;;;;29.00;26.00;;;;;1.30;100.00;99388.69;5077117;27;45379;-69
2024/01/18 05:32:49;;;;;;;;;34.25;34.00;;;;;1.25;100.00;99385.34;5070338;28;45494;-69
2024/01/18 05:35:14;;;;;;;;;37.50;33.00;;;;;1.24;100.00;99377.63;5078698;27;45457;-69
2024/01/18 05:37:39;;;;;;;;;36.25;27.25;;;;;1.34;100.00;99402.47;5073144;27;45350;-69
2024/01/18 05:40:07;;;;;;;;;26.50;26.50;;;;;1.34;100.00;99415.47;5077117;27;46065;-69
2024/01/18 05:42:32;;;;;;;;;28.75;24.00;;;;;1.31;100.00;99410.38;5052193;28;45610;-69
2024/01/18 05:44:58;;;;;;;;;37.75;28.75;;;;;1.20;100.00;99386.41;5075465;27;45248;-69
2024/01/18 05:47:24;;;;;;;;;35.50;29.50;;;;;1.41;100.00;99423.03;5049837;28;45423;-69
2024/01/18 05:49:49;;;;;;;;;47.25;30.75;;;;;1.39;100.00;99424.84;5062657;28;47987;-69
2024/01/18 05:52:15;;;;;;;;;33.00;27.50;;;;;1.37;100.00;99420.59;5071138;28;45243;-69
2024/01/18 05:54:42;;;;;;;;;34.00;31.50;;;;;1.43;100.00;99434.28;5079506;27;45351;-69
2024/01/18 05:57:07;;;;;;;;;34.00;29.50;;;;;1.45;100.00;99439.41;5075087;27;45418;-69
2024/01/18 05:59:33;;;;;;;;;34.25;32.00;;;;;1.41;100.00;99441.25;5076837;27;45393;-69
2024/01/18 06:01:58;;;;;;;;;30.25;26.50;;;;;1.44;100.00;99450.75;5067870;27;45243;-69
2024/01/18 06:04:24;;;;;;;;;40.75;34.50;;;;;1.48;100.00;99450.59;5070280;27;45436;-70
2024/01/18 06:06:50;;;;;;;;;28.00;25.00;;;;;1.44;100.00;99446.38;5076613;27;45356;-69
2024/01/18 06:09:16;;;;;;;;;29.50;23.25;;;;;1.51;100.00;99471.31;5064517;27;45623;-69
2024/01/18 06:11:45;;;;;;;;;22.25;21.50;;;;;1.50;100.00;99480.06;5068538;28;45334;-69
2024/01/18 06:14:12;;;;;;;;;36.00;28.00;;;;;1.53;100.00;99481.72;5070640;27;45443;-69
2024/01/18 06:16:38;;;;;;;;;27.25;24.25;;;;;1.46;100.00;99475.00;5070937;28;45516;-69
2024/01/18 06:19:04;;;;;;;;;28.00;24.50;;;;;1.58;100.00;99495.44;5066280;27;46063;-69
2024/01/18 06:21:29;;;;;;;;;35.25;29.00;;;;;1.46;100.00;99482.81;5049520;28;45825;-69
2024/01/18 06:23:54;;;;;;;;;27.50;26.00;;;;;1.53;100.00;99502.56;5069074;27;45738;-69
2024/01/18 06:26:20;;;;;;;;;34.25;31.00;;;;;1.55;100.00;99506.81;5071260;28;45504;-69
2024/01/18 06:28:45;;;;;;;;;24.75;24.50;;;;;1.68;100.00;99535.06;5072652;27;45446;-69
2024/01/18 06:31:11;;;;;;;;;38.25;28.50;;;;;1.39;100.00;99500.38;5066982;28;45279;-69
2024/01/18 06:33:36;;;;;;;;;37.75;31.00;;;;;1.65;100.00;99543.84;5057289;28;45500;-69
2024/01/18 06:36:02;;;;;;;;;37.75;31.25;;;;;1.66;100.00;99550.78;5062966;28;45526;-69
2024/01/18 06:38:28;;;;;;;;;30.50;23.50;;;;;1.46;100.00;99527.09;5067917;28;45516;-69
2024/01/18 06:40:54;;;;;;;;;35.75;31.50;;;;;1.27;100.00;99507.72;5066620;28;45360;-69
2024/01/18 06:43:19;;;;;;;;;33.00;31.00;;;;;1.61;100.00;99575.25;5067349;28;45318;-69
2024/01/18 06:45:44;;;;;;;;;28.75;26.00;;;;;1.66;100.00;99600.28;5047311;28;45455;-69
2024/01/18 06:48:10;;;;;;;;;29.75;26.00;;;;;1.55;100.00;99605.81;5071091;28;47499;-69
2024/01/18 06:50:36;;;;;;;;;32.50;29.00;;;;;1.43;100.00;99595.78;5068746;28;45252;-69
2024/01/18 06:53:03;;;;;;;;;28.00;26.25;;;;;1.65;100.00;99631.59;5070821;28;45565;-69
2024/01/18 06:55:29;;;;;;;;;34.25;29.00;;;;;1.50;100.00;99610.31;5064508;28;45319;-69
2024/01/18 06:57:54;;;;;;;;;35.50;32.50;;;;;1.60;100.00;99651.72;5068281;28;45892;-69
2024/01/18 07:00:23;;;;;;;;;37.50;32.50;;;;;1.61;100.00;99645.59;5069382;27;45442;-69
2024/01/18 07:02:49;;;;;;;;;38.00;30.50;;;;;1.30;100.00;99610.03;5074277;27;45228;-69
2024/01/18 07:05:14;;;;;;;;;36.50;31.50;;;;;1.32;100.00;99616.06;5067731;27;45552;-69
2024/01/18 07:07:41;;;;;;;;;47.25;38.00;;;;;1.57;100.00;99660.50;5067268;28;45523;-69
2024/01/18 07:10:07;;;;;;;;;49.25;38.25;;;;;1.63;100.00;99660.31;5067580;28;45908;-69
2024/01/18 07:12:33;;;;;;;;;42.75;34.50;;;;;1.47;100.00;99639.03;5065346;28;45707;-67
2024/01/18 07:14:59;;;;;;;;;44.00;35.00;;;;;1.36;100.00;99630.69;5072612;28;45848;-67
2024/01/18 07:17:26;;;;;;;;;45.75;38.25;;;;;1.60;100.00;99689.06;5062970;28;45619;-67
2024/01/18 07:19:52;;;;;;;;;39.25;36.25;;;;;1.31;100.00;99645.59;5071378;28;45480;-67
2024/01/18 07:22:17;;;;;;;;;45.75;36.00;;;;;1.56;100.00;99703.06;5075450;28;45322;-67
2024/01/18 07:24:42;;;;;;;;;43.00;37.50;;;;;1.55;100.00;99704.81;5066960;28;45450;-67
2024/01/18 07:27:09;;;;;;;;;44.75;37.50;;;;;1.51;100.00;99703.19;5071330;28;45567;-67
2024/01/18 07:29:36;;;;;;;;;44.25;38.00;;;;;1.53;100.00;99719.66;5075856;28;45306;-68
2024/01/18 07:32:02;;;;;;;;;52.50;42.75;;;;;1.48;100.00;99731.06;5072047;27;45392;-67
2024/01/18 07:34:27;;;;;;;;;48.75;40.75;;;;;1.52;100.00;99744.00;5068561;27;45448;-68
2024/01/18 07:36:54;;;;;;;;;38.75;38.00;;;;;1.52;100.00;99732.72;5075659;28;45409;-68
2024/01/18 07:39:20;;;;;;;;;47.00;41.75;;;;;1.43;100.00;99726.00;5078947;27;45402;-68
2024/01/18 07:41:45;;;;;;;;;55.00;43.50;;;;;1.43;100.00;99741.66;5081968;27;45236;-67
2024/01/18 07:44:11;;;;;;;;;54.25;42.25;;;;;1.42;100.00;99762.50;5070177;27;45280;-68
2024/01/18 07:46:37;;;;;;;;;51.75;42.50;;;;;1.43;100.00;99780.72;5070278;27;45660;-67
2024/01/18 07:49:03;;;;;;;;;52.75;39.25;;;;;1.43;100.00;99779.84;5067469;27;45329;-68
2024/01/18 07:51:29;;;;;;;;;55.75;43.50;;;;;1.42;100.00;99784.22;5071887;27;45282;-68
2024/01/18 07:53:54;;;;;;;;;44.75;39.00;;;;;1.36;100.00;99784.38;5061475;28;45411;-68
2024/01/18 07:56:20;;;;;;;;;49.25;41.00;;;;;1.37;100.00;99786.09;5072436;28;45287;-68
2024/01/18 07:58:45;;;;;;;;;48.25;39.00;;;;;1.38;100.00;99786.91;5067738;28;45660;-70
2024/01/18 08:01:11;;;;;;;;;46.75;39.50;;;;;1.37;100.00;99798.25;5065905;27;45410;-67
2024/01/18 08:03:37;;;;;;;;;47.00;38.00;;;;;1.37;100.00;99808.69;5064789;28;45438;-67
2024/01/18 08:06:02;;;;;;;;;54.00;43.00;;;;;1.38;100.00;99810.38;5078771;27;48074;-67
2024/01/18 08:08:28;;;;;;;;;37.75;36.25;;;;;1.45;100.00;99818.00;5079151;28;45432;-68
2024/01/18 08:10:53;;;;;;;;;48.25;41.75;;;;;1.20;100.00;99798.69;5074906;27;45403;-67
2024/01/18 08:13:18;;;;;;;;;50.50;41.75;;;;;1.30;100.00;99825.34;5070702;28;45433;-68
2024/01/18 08:15:44;;;;;;;;;45.75;38.50;;;;;1.44;100.00;99847.53;5076205;27;46499;-67
2024/01/18 08:18:09;;;;;;;;;51.00;41.00;;;;;1.45;100.00;99858.81;5077394;27;45548;-67
2024/01/18 08:20:35;;;;;;;;;45.50;40.50;;;;;1.47;100.00;99867.47;5076424;27;45548;-67
2024/01/18 08:23:01;;;;;;;;;54.50;44.50;;;;;1.39;100.00;99861.56;5076102;28;45429;-67
2024/01/18 08:25:26;;;;;;;;;50.25;41.25;;;;;1.45;100.00;99883.13;5071141;28;47385;-67
2024/01/18 08:27:54;;;;;;;;;55.50;45.25;;;;;1.44;100.00;99889.22;5081739;27;45370;-67
2024/01/18 08:30:20;;;;;;;;;56.75;46.25;;;;;1.26;100.00;99866.25;5074745;27;45255;-67
2024/01/18 08:32:45;;;;;;;;;55.75;43.50;;;;;1.46;100.00;99899.63;5081861;27;45208;-67
2024/01/18 08:35:11;;;;;;;;;53.75;44.75;;;;;1.42;100.00;99906.66;5075773;27;45422;-67
2024/01/18 08:37:37;;;;;;;;;60.25;48.25;;;;;1.36;100.00;99908.53;5063487;27;45277;-67
2024/01/18 08:40:04;;;;;;;;;57.75;46.50;;;;;1.39;100.00;99914.53;5078374;28;45632;-67
2024/01/18 08:42:30;;;;;;;;;56.75;43.50;;;;;1.42;100.00;99927.47;5076621;27;45345;-67
2024/01/18 08:44:55;;;;;;;;;61.75;50.50;;;;;1.37;100.00;99944.13;5067090;28;47505;-67
2024/01/18 08:47:22;;;;;;;;;61.00;45.75;;;;;1.36;100.00;99939.81;5060550;27;45627;-67
2024/01/18 08:49:47;;;;;;;;;65.50;46.50;;;;;1.44;100.00;99949.13;5067879;27;45291;-67
2024/01/18 08:52:13;;;;;;;;;46.50;42.00;;;;;1.46;100.00;99960.41;5077565;27;45355;-67
2024/01/18 08:54:39;;;;;;;;;60.25;47.50;;;;;1.40;100.00;99965.75;5065594;28;45435;-67
2024/01/18 08:57:04;;;;;;;;;59.00;47.50;;;;;1.38;100.00;99980.53;5070893;27;45346;-67
2024/01/18 08:59:30;;;;;;;;;64.00;48.75;;;;;1.39;100.00;99982.25;5063603;27;45766;-67
2024/01/18 09:01:55;;;;;;;;;57.75;47.25;;;;;1.41;100.00;99990.88;5073550;27;45275;-67
2024/01/18 09:04:20;;;;;;;;;63.00;51.50;;;;;1.36;100.00;99981.47;5070454;27;45394;-67
2024/01/18 09:06:46;;;;;;;;;59.75;50.00;;;;;1.38;100.00;99998.78;5069492;27;45376;-67
2024/01/18 09:09:13;;;;;;;;;62.25;49.75;;;;;1.45;100.00;100033.34;5068425;28;45483;-67
2024/01/18 09:11:39;;;;;;;;;20.75;10.75;;;;;1.40;100.00;100025.66;5072452;28;45535;-67
2024/01/18 09:14:04;;;;;;;;;64.00;50.75;;;;;1.45;100.00;100022.94;5069963;28;45465;-67
2024/01/18 09:16:32;;;;;;;;;63.00;46.00;;;;;1.45;100.00;100034.22;5077218;27;45445;-67
2024/01/18 09:19:01;;;;;;;;;63.75;48.50;;;;;1.46;100.00;100035.94;5076412;27;45720;-67
2024/01/18 09:21:27;;;;;;;;;69.50;51.75;;;;;1.58;100.00;100058.25;5050824;28;45536;-67
2024/01/18 09:23:52;;;;;;;;;61.25;45.50;;;;;1.58;100.00;100058.25;5067939;27;45871;-67
2024/01/18 09:26:18;;;;;;;;;69.00;53.75;;;;;1.68;100.00;100071.91;5071828;27;45281;-67
2024/01/18 09:28:44;;;;;;;;;59.00;47.25;;;;;1.78;100.00;100073.44;5053309;28;45328;-67
2024/01/18 09:31:09;;;;;;;;;64.00;46.25;;;;;1.75;100.00;100070.91;5076991;27;45310;-67
2024/01/18 09:33:37;;;;;;;;;63.25;49.50;;;;;1.88;100.00;100080.16;5067309;28;45629;-67
2024/01/18 09:36:04;;;;;;;;;57.75;46.25;;;;;1.87;100.00;100089.72;5067819;27;45256;-67
2024/01/18 09:38:29;;;;;;;;;56.25;45.50;;;;;1.79;100.00;100093.41;5079330;27;45422;-67
2024/01/18 09:41:04;;;;;;;;;61.25;46.00;;;;;1.84;100.00;100104.56;5077052;27;45242;-68
2024/01/18 09:43:39;;;;;;;;;64.00;51.00;;;;;1.85;100.00;100108.91;5076901;27;45402;-67
2024/01/18 09:46:06;;;;;;;;;61.00;49.50;;;;;1.83;100.00;100113.28;5067874;28;45464;-67
2024/01/18 09:48:35;;;;;;;;;56.75;44.50;;;;;1.90;100.00;100120.91;5079933;27;45494;-67
2024/01/18 09:51:06;;;;;;;;;61.50;46.00;;;;;1.86;100.00;100127.13;5077523;28;45737;-67
2024/01/18 09:53:32;;;;;;;;;53.75;45.50;;;;;1.92;100.00;100142.63;5069618;27;45458;-67
2024/01/18 09:56:03;;;;;;;;;63.50;47.75;;;;;1.96;100.00;100133.81;5079169;27;45251;-67
2024/01/18 09:58:29;;;;;;;;;61.00;47.50;;;;;2.04;100.00;100146.69;5067084;27;45250;-67
2024/01/18 10:00:57;;;;;;;;;58.25;45.25;;;;;2.13;100.00;100153.47;5070956;27;45470;-67
2024/01/18 10:03:23;;;;;;;;;59.50;48.00;;;;;2.10;100.00;100157.84;5071707;28;46760;-67
2024/01/18 10:05:49;;;;;;;;;63.50;47.50;;;;;2.25;100.00;100172.28;5074203;28;45327;-67
2024/01/18 10:08:16;;;;;;;;;55.75;44.75;;;;;2.38;100.00;100191.09;5079741;28;45369;-67
2024/01/18 10:10:42;;;;;;;;;60.75;46.25;;;;;2.41;100.00;100204.94;5073829;27;45499;-67
2024/01/18 10:13:13;;;;;;;;;56.75;48.00;;;;;2.44;100.00;100206.63;5074186;27;45321;-67
2024/01/18 10:15:39;;;;;;;;;65.75;44.50;;;;;2.44;100.00;100211.84;5067986;27;45668;-67
2024/01/18 10:18:06;;;;;;;;;62.00;46.25;;;;;2.44;100.00;100215.31;5070447;27;45449;-67
2024/01/18 10:20:32;;;;;;;;;48.25;43.25;;;;;2.60;100.00;100228.84;5078857;28;45287;-67
2024/01/18 10:23:00;;;;;;;;;53.25;42.25;;;;;2.62;100.00;100243.56;5060449;28;46376;-67
2024/01/18 10:25:26;;;;;;;;;56.50;43.50;;;;;2.69;100.00;100244.28;5061043;28;45406;-68
2024/01/18 10:27:53;;;;;;;;;57.25;45.25;;;;;2.74;100.00;100247.66;5068707;27;45251;-67
2024/01/18 10:30:19;;;;;;;;;57.00;45.00;;;;;2.82;100.00;100261.38;5069057;28;45418;-67
2024/01/18 10:32:45;;;;;;;;;55.00;44.50;;;;;2.88;100.00;100266.44;5078819;28;45484;-67
2024/01/18 10:35:20;;;;;;;;;53.25;42.00;;;;;2.96;100.00;100271.47;5067232;27;45339;-67
2024/01/18 10:37:47;;;;;;;;;52.00;38.00;;;;;2.81;100.00;100264.03;5079981;28;45401;-67
2024/01/18 10:40:18;;;;;;;;;53.25;42.50;;;;;2.83;100.00;100264.84;5074799;27;45386;-67
2024/01/18 10:42:45;;;;;;;;;61.50;44.75;;;;;2.88;100.00;100273.44;5077649;28;45496;-67
2024/01/18 10:45:11;;;;;;;;;53.25;40.25;;;;;2.88;100.00;100276.03;5072159;28;45509;-67
2024/01/18 10:47:37;;;;;;;;;52.75;43.75;;;;;3.03;100.00;100280.88;5055979;28;45312;-67
2024/01/18 10:50:04;;;;;;;;;52.00;40.75;;;;;3.02;100.00;100298.31;5062031;28;45730;-67
2024/01/18 10:52:30;;;;;;;;;55.25;41.50;;;;;2.88;100.00;100258.59;5059474;28;47154;-67
2024/01/18 10:54:58;;;;;;;;;55.50;43.50;;;;;3.04;100.00;100290.44;5067750;27;45239;-67
2024/01/18 10:57:24;;;;;;;;;51.00;42.00;;;;;3.09;100.00;100296.41;5072703;27;45366;-67
2024/01/18 10:59:52;;;;;;;;;58.75;41.75;;;;;3.16;100.00;100318.88;5064960;27;45388;-67
2024/01/18 11:02:18;;;;;;;;;53.25;44.25;;;;;3.15;100.00;100314.53;5067328;27;45674;-67
2024/01/18 11:04:46;;;;;;;;;49.25;43.25;;;;;2.99;100.00;100289.69;5067726;27;45340;-67
2024/01/18 11:07:13;;;;;;;;;52.50;43.50;;;;;3.08;100.00;100308.59;5079873;28;45476;-67
2024/01/18 11:09:39;;;;;;;;;49.25;40.75;;;;;3.15;100.00;100335.44;5067602;27;45590;-66